Terminal Aerodrome Forecast
Issued by NWS Pittsburgh, PA

Home | Current Version | Previous Version | Text Only | Print | Product List | Glossary On
Versions: 1 2 3 4 5 6 7 8 9 10 11 12 13 14 15 16 17 18 19 20 21 22 23 24 25 26 27 28 29 30
000
FTUS41 KPBZ 141300 AAA
TAFPIT
TAF AMD
KPIT 141337Z 1414/1518 22003KT P6SM OVC010
     FM141500 22005KT P6SM BKN020
     FM141700 23007KT P6SM VCSH BKN035
     FM150700 23005KT P6SM VCSH SCT005 BKN010
     FM151500 24008KT P6SM SCT035=

USA.gov is the U.S. government's official web portal to all federal, state and local government web resources and services.